Time;durP1;ratioP1;P1;durP2;ratioP2;P2;SDS_P1;SDS_P2;PMS_P1;PMS_P2;Temp;Humidity;BMP_temperature;BMP_pressure;BME280_temperature;BME280_humidity;BME280_pressure;Samples;Min_cycle;Max_cycle;Signal;HPM_P1;HPM_P2
2022/03/26 00:00:36;;;;;;;2.53;1.85;;;11.30;64.40;;;;;;4952695;29;20045;-61
2022/03/26 00:03:04;;;;;;;15.27;1.88;;;11.30;64.50;;;;;;4952825;29;20037;-61
2022/03/26 00:05:30;;;;;;;0.98;0.68;;;11.30;64.20;;;;;;4935705;28;20038;-61
2022/03/26 00:07:56;;;;;;;2.70;1.90;;;11.30;64.20;;;;;;4952789;29;20483;-62
2022/03/26 00:10:21;;;;;;;1.98;1.65;;;11.20;64.20;;;;;;4952797;29;20082;-62
2022/03/26 00:12:47;;;;;;;1.33;1.23;;;11.20;64.10;;;;;;4952691;29;20027;-61
2022/03/26 00:15:13;;;;;;;2.35;1.98;;;11.10;64.00;;;;;;4935232;29;20041;-61
2022/03/26 00:17:39;;;;;;;3.05;2.65;;;11.10;64.20;;;;;;4952745;28;20038;-61
2022/03/26 00:20:07;;;;;;;1.25;1.20;;;11.10;64.50;;;;;;4935387;29;20613;-61
2022/03/26 00:22:33;;;;;;;2.75;2.55;;;11.00;64.60;;;;;;4952496;29;20027;-62
2022/03/26 00:24:59;;;;;;;5.28;3.45;;;10.90;65.10;;;;;;4952786;29;20046;-61
2022/03/26 00:27:25;;;;;;;3.70;3.00;;;10.80;65.60;;;;;;4979271;28;20129;-61
2022/03/26 00:29:51;;;;;;;2.42;2.28;;;10.60;66.00;;;;;;4975624;28;20099;-61
2022/03/26 00:32:17;;;;;;;0.98;0.98;;;10.60;66.20;;;;;;4971873;28;20078;-62
2022/03/26 00:34:43;;;;;;;0.98;0.88;;;10.50;66.30;;;;;;4954403;28;20085;-61
2022/03/26 00:37:09;;;;;;;2.88;1.73;;;10.50;66.40;;;;;;4971776;28;20475;-62
2022/03/26 00:39:36;;;;;;;0.45;0.45;;;10.50;66.40;;;;;;4971398;28;20130;-62
2022/03/26 00:42:02;;;;;;;8.88;2.63;;;10.40;66.60;;;;;;4954409;28;20065;-62
2022/03/26 00:44:28;;;;;;;5.95;2.58;;;10.40;67.00;;;;;;4970447;28;20117;-62
2022/03/26 00:46:53;;;;;;;1.90;1.75;;;10.30;67.10;;;;;;4971655;28;20173;-62
2022/03/26 00:49:19;;;;;;;22.15;3.00;;;10.20;67.70;;;;;;4971162;28;20425;-61
2022/03/26 00:51:46;;;;;;;1.98;1.60;;;10.10;67.90;;;;;;4971750;28;20117;-62
2022/03/26 00:54:12;;;;;;;2.72;2.53;;;10.00;68.20;;;;;;4971642;28;20033;-61
2022/03/26 00:56:40;;;;;;;3.92;3.55;;;10.00;68.10;;;;;;4974896;28;20487;-61
2022/03/26 00:59:07;;;;;;;2.92;2.70;;;9.90;68.10;;;;;;4973896;28;20035;-61
2022/03/26 01:01:34;;;;;;;1.98;1.77;;;10.00;68.00;;;;;;4974281;28;20050;-61
2022/03/26 01:04:00;;;;;;;1.48;1.38;;;9.90;68.00;;;;;;4958199;28;20042;-62
2022/03/26 01:06:27;;;;;;;2.33;2.03;;;9.90;68.20;;;;;;4974286;28;20031;-61
2022/03/26 01:08:54;;;;;;;1.23;1.08;;;9.80;68.60;;;;;;4974759;28;20027;-61
2022/03/26 01:11:21;;;;;;;3.22;2.13;;;9.70;69.10;;;;;;4973843;28;20027;-62
2022/03/26 01:13:48;;;;;;;0.45;0.45;;;9.60;69.60;;;;;;4975313;28;20027;-61
2022/03/26 01:16:15;;;;;;;12.25;3.03;;;9.50;69.80;;;;;;4957983;28;20031;-61
2022/03/26 01:18:42;;;;;;;2.60;2.42;;;9.40;69.90;;;;;;4973929;28;20034;-62
2022/03/26 01:21:08;;;;;;;2.75;2.53;;;9.30;69.90;;;;;;4975378;28;20494;-61
2022/03/26 01:23:34;;;;;;;1.02;1.02;;;9.20;70.10;;;;;;4957882;28;20042;-62
2022/03/26 01:26:02;;;;;;;2.33;2.05;;;9.20;70.50;;;;;;4973695;28;20027;-62
2022/03/26 01:28:30;;;;;;;11.30;2.38;;;9.10;70.80;;;;;;4957630;28;20022;-62
2022/03/26 01:31:00;;;;;;;2.03;1.92;;;9.00;71.20;;;;;;4974744;28;20070;-62
2022/03/26 01:33:26;;;;;;;3.80;1.45;;;8.90;71.60;;;;;;4974854;28;20118;-62
2022/03/26 01:35:53;;;;;;;8.15;4.38;;;8.90;72.50;;;;;;4974934;28;20026;-61
2022/03/26 01:38:20;;;;;;;2.22;1.60;;;8.80;72.10;;;;;;4974574;28;20026;-62
2022/03/26 01:40:47;;;;;;;0.95;0.95;;;8.70;72.30;;;;;;4974977;28;20038;-62
2022/03/26 01:43:13;;;;;;;1.27;1.17;;;8.70;72.40;;;;;;4957621;28;20034;-61
2022/03/26 01:45:39;;;;;;;5.68;3.53;;;8.60;72.50;;;;;;4957689;28;20426;-61
2022/03/26 01:48:05;;;;;;;0.60;0.60;;;8.60;72.60;;;;;;4974656;28;20555;-61
2022/03/26 01:50:31;;;;;;;4.70;2.35;;;8.50;72.70;;;;;;4974403;28;20027;-61
2022/03/26 01:52:58;;;;;;;1.25;1.20;;;8.40;73.10;;;;;;4941573;28;20081;-62
2022/03/26 01:55:31;;;;;;;1.15;1.13;;;8.30;73.40;;;;;;4956884;28;20502;-62
2022/03/26 01:57:57;;;;;;;1.52;1.42;;;8.30;73.70;;;;;;4974311;28;20053;-63
2022/03/26 02:00:23;;;;;;;2.42;2.22;;;8.20;74.00;;;;;;4956987;28;20043;-62
2022/03/26 02:02:49;;;;;;;12.52;4.47;;;8.10;74.20;;;;;;4956954;28;20495;-63
2022/03/26 02:05:18;;;;;;;8.65;2.60;;;8.10;74.40;;;;;;4970372;28;20033;-62
2022/03/26 02:07:46;;;;;;;2.25;1.08;;;8.10;74.60;;;;;;4954609;28;20035;-62
2022/03/26 02:10:15;;;;;;;1.88;1.73;;;8.00;74.70;;;;;;4956496;28;20027;-62
2022/03/26 02:12:42;;;;;;;1.75;1.65;;;7.90;75.20;;;;;;4937693;29;20057;-62
2022/03/26 02:15:09;;;;;;;1.75;1.65;;;7.80;75.60;;;;;;4959824;28;20107;-62
2022/03/26 02:17:36;;;;;;;12.90;4.70;;;7.70;75.70;;;;;;4956957;28;20030;-62
2022/03/26 02:20:11;;;;;;;1.60;1.50;;;7.60;76.00;;;;;;4956558;28;20105;-62
2022/03/26 02:22:38;;;;;;;9.60;1.85;;;7.60;76.40;;;;;;4956654;28;20045;-61
2022/03/26 02:25:06;;;;;;;3.30;3.00;;;7.40;76.70;;;;;;4973756;28;20030;-62
2022/03/26 02:27:33;;;;;;;1.90;1.80;;;7.40;76.90;;;;;;4977587;28;20031;-62
2022/03/26 02:29:59;;;;;;;8.07;1.23;;;7.30;77.30;;;;;;4976409;28;20062;-62
2022/03/26 02:32:28;;;;;;;1.73;1.63;;;7.30;77.40;;;;;;4973578;28;20116;-62
2022/03/26 02:34:55;;;;;;;1.40;1.13;;;7.20;77.60;;;;;;4956703;28;20525;-61
2022/03/26 02:37:21;;;;;;;1.48;1.38;;;7.20;77.60;;;;;;4973968;28;20045;-61
2022/03/26 02:39:47;;;;;;;0.60;0.60;;;7.20;77.90;;;;;;4956116;28;20089;-61
2022/03/26 02:42:14;;;;;;;0.10;0.10;;;7.10;78.00;;;;;;4956666;28;20031;-63
2022/03/26 02:44:40;;;;;;;2.08;1.98;;;7.10;78.00;;;;;;4968809;28;20043;-64
2022/03/26 02:47:08;;;;;;;0.70;0.70;;;7.10;78.20;;;;;;4968963;28;20046;-61
2022/03/26 02:49:34;;;;;;;1.08;0.98;;;7.00;78.30;;;;;;4952886;28;20576;-62
2022/03/26 02:52:00;;;;;;;4.22;1.52;;;7.00;78.50;;;;;;4952922;29;20094;-62
2022/03/26 02:54:26;;;;;;;12.55;3.00;;;7.00;78.90;;;;;;4954481;28;20033;-62
2022/03/26 02:56:54;;;;;;;0.35;0.35;;;6.90;78.80;;;;;;4965257;23;20073;-64
2022/03/26 02:59:21;;;;;;;3.72;3.03;;;6.90;78.90;;;;;;4953197;29;20578;-64
2022/03/26 03:01:47;;;;;;;0.70;0.70;;;6.90;79.00;;;;;;4936826;29;20134;-64
2022/03/26 03:04:13;;;;;;;3.83;1.45;;;6.90;79.30;;;;;;4936502;29;20027;-64
2022/03/26 03:06:39;;;;;;;1.35;1.30;;;6.80;79.50;;;;;;4936609;29;20491;-64
2022/03/26 03:09:07;;;;;;;2.05;1.95;;;6.80;79.90;;;;;;4951888;29;20027;-63
2022/03/26 03:11:35;;;;;;;0.90;0.38;;;6.70;80.20;;;;;;4953967;29;20455;-63
2022/03/26 03:14:04;;;;;;;35.05;1.98;;;6.70;80.40;;;;;;4952555;28;20027;-63
2022/03/26 03:16:30;;;;;;;0.20;0.20;;;6.70;80.50;;;;;;4952686;28;20031;-63
2022/03/26 03:18:55;;;;;;;8.10;2.63;;;6.60;80.80;;;;;;4950993;29;20058;-63
2022/03/26 03:21:21;;;;;;;1.80;1.65;;;6.60;81.00;;;;;;4953762;29;20066;-63
2022/03/26 03:23:47;;;;;;;3.03;2.83;;;6.60;81.40;;;;;;4953771;29;20114;-63
2022/03/26 03:26:15;;;;;;;0.50;0.50;;;6.50;81.50;;;;;;4953553;29;20463;-63
2022/03/26 03:28:42;;;;;;;0.10;0.10;;;6.50;81.60;;;;;;4951586;29;20098;-63
2022/03/26 03:31:08;;;;;;;1.30;1.20;;;6.50;81.90;;;;;;4953609;29;20262;-63
2022/03/26 03:33:35;;;;;;;0.70;0.70;;;6.40;82.10;;;;;;4953067;29;20078;-63
2022/03/26 03:36:01;;;;;;;23.10;4.13;;;6.40;82.40;;;;;;4952197;29;20027;-63
2022/03/26 03:38:27;;;;;;;1.33;1.23;;;6.30;82.50;;;;;;4951674;29;20046;-64
2022/03/26 03:40:53;;;;;;;3.33;3.03;;;6.30;83.00;;;;;;4953549;29;20077;-63
2022/03/26 03:43:19;;;;;;;0.30;0.30;;;6.20;83.20;;;;;;4953178;29;20146;-63
2022/03/26 03:45:45;;;;;;;0.93;0.88;;;6.20;83.50;;;;;;4953563;29;20106;-64
2022/03/26 03:48:10;;;;;;;0.73;0.73;;;6.10;83.80;;;;;;4952885;29;20027;-63
2022/03/26 03:50:36;;;;;;;0.73;0.73;;;6.10;84.10;;;;;;4951357;29;20038;-63
2022/03/26 03:53:02;;;;;;;7.13;1.23;;;6.00;84.30;;;;;;4953021;29;20038;-63
2022/03/26 03:55:28;;;;;;;6.30;2.50;;;6.00;84.60;;;;;;4951720;29;20109;-63
2022/03/26 03:57:54;;;;;;;0.38;0.38;;;6.00;90.00;;;;;;4951294;28;20079;-64
2022/03/26 04:00:21;;;;;;;0.57;0.57;;;6.00;87.00;;;;;;4951467;29;20039;-63
2022/03/26 04:02:47;;;;;;;0.43;0.43;;;5.90;86.00;;;;;;4951447;28;20027;-63
2022/03/26 04:05:13;;;;;;;3.30;0.63;;;5.90;85.90;;;;;;4951702;29;20038;-63
2022/03/26 04:07:44;;;;;;;2.80;1.02;;;5.90;86.20;;;;;;4951644;28;20039;-63
2022/03/26 04:10:10;;;;;;;4.57;0.93;;;5.80;86.40;;;;;;4952586;29;20121;-63
2022/03/26 04:12:40;;;;;;;2.72;2.20;;;5.80;86.80;;;;;;4935716;29;20045;-63
2022/03/26 04:15:08;;;;;;;2.47;1.50;;;5.80;87.20;;;;;;4948173;29;20059;-62
2022/03/26 04:17:34;;;;;;;3.38;1.58;;;5.70;87.40;;;;;;4947800;29;20408;-62
2022/03/26 04:20:08;;;;;;;3.15;2.88;;;5.70;87.70;;;;;;4947770;29;20435;-63
2022/03/26 04:22:39;;;;;;;0.20;0.20;;;5.70;87.80;;;;;;4947671;29;20036;-62
2022/03/26 04:25:06;;;;;;;0.77;0.77;;;5.70;88.00;;;;;;4933528;29;20035;-63
2022/03/26 04:27:32;;;;;;;1.55;1.45;;;5.70;88.10;;;;;;4947458;29;20086;-63
2022/03/26 04:29:58;;;;;;;3.85;3.03;;;5.70;88.30;;;;;;4951792;28;20019;-63
2022/03/26 04:32:24;;;;;;;2.00;1.90;;;5.70;88.50;;;;;;4951077;29;20034;-62
2022/03/26 04:34:49;;;;;;;0.65;0.63;;;5.70;88.80;;;;;;4952616;29;20067;-63
2022/03/26 04:37:15;;;;;;;2.10;1.42;;;5.60;89.20;;;;;;4952444;29;20028;-64
2022/03/26 04:39:41;;;;;;;0.90;0.90;;;5.60;89.60;;;;;;4935006;29;20479;-63
2022/03/26 04:42:08;;;;;;;13.85;1.85;;;5.60;89.90;;;;;;4952147;29;20383;-64
2022/03/26 04:44:33;;;;;;;2.67;2.47;;;5.50;90.10;;;;;;4950978;29;20023;-64
2022/03/26 04:46:59;;;;;;;0.20;0.20;;;5.50;90.30;;;;;;4950975;28;20035;-63
2022/03/26 04:49:25;;;;;;;2.53;2.13;;;5.50;90.40;;;;;;4951815;29;20114;-64
2022/03/26 04:51:51;;;;;;;4.82;2.22;;;5.40;90.60;;;;;;4951278;29;20383;-64
2022/03/26 04:54:16;;;;;;;0.85;0.85;;;5.40;90.80;;;;;;4951448;29;20400;-64
2022/03/26 04:56:42;;;;;;;4.80;1.77;;;5.30;90.90;;;;;;4952193;29;20514;-64
2022/03/26 04:59:08;;;;;;;1.25;1.17;;;5.30;91.10;;;;;;4951769;29;20034;-63
2022/03/26 05:01:33;;;;;;;2.50;2.30;;;5.30;91.40;;;;;;4952251;29;20035;-64
2022/03/26 05:03:59;;;;;;;0.45;0.45;;;5.30;91.50;;;;;;4951762;29;20659;-64
2022/03/26 05:06:25;;;;;;;0.93;0.90;;;5.20;91.70;;;;;;4952092;29;20086;-64
2022/03/26 05:08:51;;;;;;;9.75;3.20;;;5.20;91.80;;;;;;4951663;29;20094;-64
2022/03/26 05:11:18;;;;;;;1.55;1.45;;;5.20;92.00;;;;;;4951952;29;20042;-64
2022/03/26 05:13:43;;;;;;;3.92;3.50;;;5.20;92.20;;;;;;4950634;29;20112;-64
2022/03/26 05:16:09;;;;;;;0.30;0.30;;;5.20;92.30;;;;;;4952015;29;20052;-64
2022/03/26 05:18:39;;;;;;;0.47;0.40;;;5.20;92.40;;;;;;4950429;29;20122;-64
2022/03/26 05:21:07;;;;;;;1.95;1.85;;;5.20;92.60;;;;;;4951246;29;20031;-63
2022/03/26 05:23:34;;;;;;;0.63;0.63;;;5.20;92.80;;;;;;4951896;29;20035;-64
2022/03/26 05:26:00;;;;;;;1.70;1.52;;;5.20;92.90;;;;;;4950786;29;20090;-64
2022/03/26 05:28:25;;;;;;;3.92;1.98;;;5.20;93.00;;;;;;4950222;29;20027;-64
2022/03/26 05:30:52;;;;;;;7.45;1.38;;;5.20;93.20;;;;;;4951874;29;20043;-64
2022/03/26 05:33:18;;;;;;;1.88;1.38;;;5.20;93.40;;;;;;4950300;29;20050;-64
2022/03/26 05:35:44;;;;;;;3.63;3.30;;;5.20;93.50;;;;;;4950766;29;20432;-64
2022/03/26 05:38:10;;;;;;;3.20;1.85;;;5.20;93.60;;;;;;4950364;29;20042;-64
2022/03/26 05:40:36;;;;;;;0.10;0.10;;;5.10;93.60;;;;;;4935079;29;20038;-64
2022/03/26 05:43:02;;;;;;;0.75;0.75;;;5.20;93.80;;;;;;4955266;29;20035;-64
2022/03/26 05:45:29;;;;;;;1.58;1.48;;;5.20;94.00;;;;;;4955441;29;20058;-64
2022/03/26 05:48:02;;;;;;;1.70;1.08;;;5.20;93.90;;;;;;4955462;29;20038;-64
2022/03/26 05:50:29;;;;;;;1.98;1.60;;;5.30;93.90;;;;;;4954014;29;20023;-64
2022/03/26 05:52:55;;;;;;;4.50;3.47;;;5.30;94.00;;;;;;4954074;29;20580;-64
2022/03/26 05:55:21;;;;;;;0.75;0.75;;;5.30;94.10;;;;;;4954988;29;20024;-64
2022/03/26 05:57:47;;;;;;;1.52;1.42;;;5.30;94.30;;;;;;4953788;29;20090;-64
2022/03/26 06:00:13;;;;;;;1.38;1.27;;;5.20;94.40;;;;;;4954601;29;20619;-64
2022/03/26 06:02:39;;;;;;;1.45;1.40;;;5.30;94.50;;;;;;4954098;29;20043;-64
2022/03/26 06:05:06;;;;;;;0.85;0.85;;;5.30;94.70;;;;;;4937567;29;20027;-64
2022/03/26 06:07:32;;;;;;;2.40;2.28;;;5.30;94.80;;;;;;4954583;29;20031;-64
2022/03/26 06:09:58;;;;;;;4.65;2.25;;;5.30;94.80;;;;;;4953317;29;20027;-64
2022/03/26 06:12:24;;;;;;;1.65;1.55;;;5.30;94.90;;;;;;4955084;29;20482;-64
2022/03/26 06:14:50;;;;;;;0.10;0.10;;;5.30;94.90;;;;;;4954856;29;20543;-64
2022/03/26 06:17:16;;;;;;;0.57;0.57;;;5.40;95.00;;;;;;4954712;29;20094;-64
2022/03/26 06:19:43;;;;;;;4.30;2.08;;;5.40;95.10;;;;;;4954069;29;20391;-63
2022/03/26 06:22:08;;;;;;;1.98;1.83;;;5.50;95.00;;;;;;4953556;29;20135;-63
2022/03/26 06:24:35;;;;;;;0.45;0.45;;;5.50;95.00;;;;;;4954618;29;20703;-63
2022/03/26 06:27:01;;;;;;;0.60;0.57;;;5.60;95.00;;;;;;4953971;29;20032;-63
2022/03/26 06:29:27;;;;;;;0.95;0.95;;;5.70;94.90;;;;;;4952775;29;20496;-63
2022/03/26 06:31:53;;;;;;;0.52;0.52;;;5.80;94.90;;;;;;4937236;29;20031;-63
2022/03/26 06:34:19;;;;;;;0.20;0.20;;;5.90;94.80;;;;;;4954459;29;20213;-63
2022/03/26 06:36:45;;;;;;;3.88;3.50;;;6.00;94.60;;;;;;4954445;29;20086;-63
2022/03/26 06:39:11;;;;;;;0.98;0.98;;;6.00;94.50;;;;;;4954343;29;20038;-64
2022/03/26 06:41:39;;;;;;;1.02;0.95;;;6.10;94.50;;;;;;4953142;28;20078;-62
2022/03/26 06:44:09;;;;;;;0.20;0.20;;;6.20;94.30;;;;;;4954420;29;20054;-62
2022/03/26 06:46:37;;;;;;;2.10;0.73;;;6.30;94.30;;;;;;4936547;29;20181;-62
2022/03/26 06:49:04;;;;;;;0.65;0.65;;;6.40;94.10;;;;;;4954122;29;20035;-63
2022/03/26 06:51:31;;;;;;;4.13;3.53;;;6.40;94.10;;;;;;4952794;28;20518;-63
2022/03/26 06:53:58;;;;;;;1.02;0.75;;;6.50;94.00;;;;;;4954112;29;20046;-63
2022/03/26 06:56:24;;;;;;;2.67;2.47;;;6.70;93.90;;;;;;4953783;29;20027;-63
2022/03/26 06:58:50;;;;;;;8.05;3.13;;;6.80;93.70;;;;;;4936429;29;20039;-63
2022/03/26 07:01:15;;;;;;;5.10;1.85;;;6.90;93.50;;;;;;4937512;29;20055;-63
2022/03/26 07:03:41;;;;;;;2.65;2.40;;;7.10;93.40;;;;;;4954496;29;20044;-63
2022/03/26 07:06:07;;;;;;;0.90;0.88;;;7.20;93.30;;;;;;4952371;29;20125;-63
2022/03/26 07:08:33;;;;;;;0.30;0.30;;;7.30;93.20;;;;;;4953716;29;20121;-63
2022/03/26 07:10:59;;;;;;;1.10;1.00;;;7.50;93.20;;;;;;4952540;29;20027;-63
2022/03/26 07:13:25;;;;;;;1.42;1.33;;;7.60;92.80;;;;;;4953845;29;20043;-63
2022/03/26 07:15:51;;;;;;;1.70;1.60;;;7.70;92.60;;;;;;4952547;29;20114;-64
2022/03/26 07:18:16;;;;;;;1.38;1.33;;;7.90;92.60;;;;;;4951831;29;20106;-64
2022/03/26 07:20:42;;;;;;;1.33;1.05;;;7.90;92.40;;;;;;4952505;29;20495;-64
2022/03/26 07:23:08;;;;;;;1.48;1.38;;;8.10;92.40;;;;;;4952475;29;20045;-65
2022/03/26 07:25:34;;;;;;;1.95;1.27;;;8.20;92.20;;;;;;4953923;29;20031;-63
2022/03/26 07:28:01;;;;;;;4.22;1.33;;;8.40;92.00;;;;;;4953291;29;20035;-64
2022/03/26 07:30:30;;;;;;;1.52;1.08;;;8.50;91.70;;;;;;4953090;29;20035;-64
2022/03/26 07:32:56;;;;;;;3.53;2.42;;;8.80;91.20;;;;;;4953193;29;20503;-62
2022/03/26 07:35:23;;;;;;;3.03;2.83;;;8.90;90.80;;;;;;4936291;29;20027;-63
2022/03/26 07:37:49;;;;;;;0.70;0.70;;;9.10;90.60;;;;;;4935946;29;20114;-63
2022/03/26 07:40:14;;;;;;;5.05;2.70;;;9.30;90.20;;;;;;4935880;29;20504;-63
2022/03/26 07:42:40;;;;;;;3.63;1.85;;;9.40;90.30;;;;;;4935986;29;20111;-64
2022/03/26 07:45:07;;;;;;;0.68;0.68;;;9.50;90.10;;;;;;4936441;29;20027;-64
2022/03/26 07:47:37;;;;;;;0.93;0.85;;;9.60;90.00;;;;;;4953187;29;20031;-64
2022/03/26 07:50:05;;;;;;;1.92;1.75;;;9.70;89.60;;;;;;4935349;29;20126;-64
2022/03/26 07:52:33;;;;;;;2.17;2.03;;;10.00;88.70;;;;;;4953352;29;20138;-64
2022/03/26 07:54:58;;;;;;;0.77;0.77;;;10.20;87.10;;;;;;4936081;29;20031;-64
2022/03/26 07:57:24;;;;;;;1.77;1.67;;;10.20;87.00;;;;;;4952774;29;20031;-64
2022/03/26 07:59:50;;;;;;;1.02;1.02;;;10.40;86.70;;;;;;4951185;29;20667;-63
2022/03/26 08:02:16;;;;;;;2.53;1.58;;;10.40;86.30;;;;;;4951472;29;20498;-63
2022/03/26 08:04:42;;;;;;;0.28;0.28;;;10.50;85.90;;;;;;4952214;28;20118;-63
2022/03/26 08:07:08;;;;;;;2.08;1.90;;;10.60;85.40;;;;;;4951609;29;20031;-63
2022/03/26 08:09:33;;;;;;;1.70;1.60;;;10.70;85.00;;;;;;4952752;29;20347;-63
2022/03/26 08:11:59;;;;;;;1.33;1.23;;;10.80;85.10;;;;;;4951645;29;20404;-62
2022/03/26 08:14:25;;;;;;;10.55;2.88;;;10.90;85.10;;;;;;4952682;29;20070;-63
2022/03/26 08:16:50;;;;;;;1.85;1.50;;;10.90;84.70;;;;;;4952465;29;20046;-63
2022/03/26 08:19:17;;;;;;;4.03;3.50;;;11.00;84.20;;;;;;4952393;29;20487;-63
2022/03/26 08:21:42;;;;;;;1.80;1.70;;;11.20;84.00;;;;;;4952401;29;20035;-63
2022/03/26 08:24:08;;;;;;;2.95;2.05;;;11.30;83.90;;;;;;4952342;29;20039;-63
2022/03/26 08:26:37;;;;;;;7.03;2.95;;;11.40;83.50;;;;;;4952664;29;20097;-63
2022/03/26 08:29:02;;;;;;;4.35;3.03;;;11.60;83.30;;;;;;4952328;29;20027;-63
2022/03/26 08:31:31;;;;;;;1.05;0.95;;;11.70;82.70;;;;;;4952790;29;20070;-64
2022/03/26 08:33:58;;;;;;;3.53;2.05;;;11.80;82.10;;;;;;4951454;29;20035;-63
2022/03/26 08:36:24;;;;;;;2.40;2.08;;;12.00;82.10;;;;;;4951397;29;20094;-63
2022/03/26 08:38:50;;;;;;;0.57;0.57;;;12.00;81.50;;;;;;4952419;29;20039;-62
2022/03/26 08:41:22;;;;;;;4.45;1.65;;;12.10;81.10;;;;;;4951226;29;20031;-63
2022/03/26 08:43:50;;;;;;;3.50;2.70;;;12.30;81.20;;;;;;4950975;29;20031;-63
2022/03/26 08:46:19;;;;;;;1.65;1.52;;;12.40;80.60;;;;;;4951193;29;20530;-63
2022/03/26 08:48:46;;;;;;;3.55;1.80;;;12.60;79.50;;;;;;4951923;29;20027;-63
2022/03/26 08:51:12;;;;;;;3.72;3.42;;;12.70;79.00;;;;;;4952196;29;20023;-63
2022/03/26 08:53:39;;;;;;;0.68;0.68;;;12.80;79.50;;;;;;4933489;29;20035;-63
2022/03/26 08:56:06;;;;;;;8.88;2.00;;;12.80;78.80;;;;;;4934794;29;20026;-63
2022/03/26 08:58:33;;;;;;;2.25;1.65;;;12.90;78.40;;;;;;4950682;29;20031;-63
2022/03/26 09:01:00;;;;;;;1.95;1.83;;;13.10;79.70;;;;;;4952490;29;20355;-62
2022/03/26 09:03:25;;;;;;;1.88;1.70;;;13.20;78.50;;;;;;4950680;29;20547;-63
2022/03/26 09:05:53;;;;;;;4.38;3.95;;;13.30;77.50;;;;;;4950972;29;20139;-64
2022/03/26 09:08:19;;;;;;;1.85;1.70;;;13.40;77.00;;;;;;4950532;29;20117;-64
2022/03/26 09:10:45;;;;;;;5.50;3.03;;;13.50;76.10;;;;;;4951910;29;20027;-63
2022/03/26 09:13:12;;;;;;;2.17;1.85;;;13.60;76.40;;;;;;4952122;29;20027;-64
2022/03/26 09:15:39;;;;;;;6.75;2.80;;;13.70;76.30;;;;;;4951501;28;20066;-64
2022/03/26 09:18:05;;;;;;;3.22;2.50;;;13.80;76.30;;;;;;4955679;29;20047;-64
2022/03/26 09:20:32;;;;;;;9.23;3.33;;;13.90;76.00;;;;;;4956189;29;20119;-64
2022/03/26 09:22:58;;;;;;;4.57;3.53;;;14.00;74.90;;;;;;4954516;29;20380;-64
2022/03/26 09:25:25;;;;;;;3.50;2.55;;;14.20;75.00;;;;;;4955704;29;20504;-64
2022/03/26 09:27:51;;;;;;;2.97;2.13;;;14.30;74.70;;;;;;4955498;29;20032;-63
2022/03/26 09:30:20;;;;;;;4.32;3.50;;;14.40;74.50;;;;;;4955498;29;20057;-64
2022/03/26 09:32:46;;;;;;;0.75;0.75;;;14.50;74.10;;;;;;4955868;29;20098;-63
2022/03/26 09:35:14;;;;;;;7.00;3.83;;;14.70;73.40;;;;;;4955596;29;20044;-65
2022/03/26 09:37:41;;;;;;;1.63;1.52;;;14.80;73.20;;;;;;4955463;29;20070;-63
2022/03/26 09:40:09;;;;;;;3.53;1.67;;;15.00;71.50;;;;;;4954240;29;20023;-64
2022/03/26 09:42:37;;;;;;;2.53;2.33;;;15.20;71.20;;;;;;4954217;29;20046;-63
2022/03/26 09:45:06;;;;;;;4.40;3.97;;;15.30;70.40;;;;;;4955756;29;20554;-64
2022/03/26 09:47:33;;;;;;;4.05;3.33;;;15.40;71.20;;;;;;4954106;29;20110;-63
2022/03/26 09:50:00;;;;;;;10.65;3.58;;;15.40;71.10;;;;;;4937832;29;20035;-63
2022/03/26 09:52:26;;;;;;;1.70;1.58;;;15.40;72.00;;;;;;4938053;29;20035;-63
2022/03/26 09:54:55;;;;;;;1.17;1.10;;;15.60;71.20;;;;;;4953865;29;20400;-63
2022/03/26 09:57:21;;;;;;;2.25;1.23;;;15.60;71.30;;;;;;4953908;29;20043;-63
2022/03/26 09:59:46;;;;;;;0.40;0.40;;;15.60;71.20;;;;;;4955083;29;20086;-64
2022/03/26 10:02:12;;;;;;;1.38;1.27;;;15.80;71.30;;;;;;4955145;29;20027;-63
2022/03/26 10:04:41;;;;;;;4.28;3.38;;;15.90;70.60;;;;;;4955434;29;20468;-63
2022/03/26 10:07:07;;;;;;;4.35;3.15;;;16.10;70.00;;;;;;4953844;29;20038;-63
2022/03/26 10:09:45;;;;;;;3.92;2.70;;;16.30;69.30;;;;;;4953255;29;20037;-64
2022/03/26 10:12:19;;;;;;;2.50;2.30;;;16.40;70.00;;;;;;4954067;28;20383;-64
2022/03/26 10:14:54;;;;;;;2.50;2.13;;;16.60;68.80;;;;;;4954612;29;20383;-63
2022/03/26 10:17:36;;;;;;;4.50;3.38;;;16.50;68.50;;;;;;4937713;29;20031;-63
2022/03/26 10:20:05;;;;;;;;;;;16.60;68.20;;;;;;4953701;28;20035;-63
2022/03/26 10:22:35;;;;;;;;;;;16.60;68.20;;;;;;4954296;29;19910;-63
2022/03/26 10:25:07;;;;;;;;;;;16.60;68.50;;;;;;4955496;29;19917;-65
2022/03/26 10:27:44;;;;;;;;;;;16.70;70.80;;;;;;4954255;28;19956;-63
2022/03/26 10:30:12;;;;;;;;;;;16.90;68.30;;;;;;4939340;29;19914;-63
2022/03/26 10:32:39;;;;;;;;;;;17.20;67.40;;;;;;4955258;29;20690;-63
2022/03/26 10:35:27;;;;;;;;;;;17.30;66.40;;;;;;4954965;29;20358;-64
2022/03/26 10:38:03;;;;;;;;;;;17.50;65.40;;;;;;4955032;29;19917;-63
2022/03/26 10:40:37;;;;;;;;;;;17.60;65.10;;;;;;4954728;28;20423;-63
2022/03/26 10:43:14;;;;;;;;;;;17.50;65.20;;;;;;4938314;29;19911;-64
2022/03/26 10:45:49;;;;;;;;;;;17.60;64.80;;;;;;4954767;29;20008;-64
2022/03/26 10:48:22;;;;;;;;;;;17.70;64.40;;;;;;4954688;29;19914;-64
2022/03/26 10:50:53;;;;;;;;;;;18.10;64.20;;;;;;4938570;29;19917;-64
2022/03/26 10:53:19;;;;;;;;;;;18.40;62.70;;;;;;4951680;29;19915;-64
2022/03/26 10:55:44;;;;;;;;;;;18.50;61.60;;;;;;4954351;29;19918;-64
2022/03/26 10:58:10;;;;;;;;;;;18.50;59.40;;;;;;4953023;29;20400;-63
2022/03/26 11:00:36;;;;;;;;;;;18.70;58.40;;;;;;4953284;29;19939;-63
2022/03/26 11:03:02;;;;;;;;;;;18.60;58.10;;;;;;4953502;29;19945;-63
2022/03/26 11:05:30;;;;;;;;;;;18.60;58.20;;;;;;4954534;29;19910;-63
2022/03/26 11:07:57;;;;;;;;;;;19.00;57.30;;;;;;4952731;28;19964;-63
2022/03/26 11:10:25;;;;;;;;;;;19.20;56.60;;;;;;4954392;29;19917;-63
2022/03/26 11:12:52;;;;;;;;;;;19.40;56.90;;;;;;4953466;29;20362;-64
2022/03/26 11:15:27;;;;;;;;;;;19.60;55.80;;;;;;4954399;29;19914;-64
2022/03/26 11:18:05;;;;;;;;;;;19.20;54.70;;;;;;4954393;29;19910;-64
2022/03/26 11:20:49;;;;;;;;;;;19.60;54.80;;;;;;4953661;29;19914;-64
2022/03/26 11:23:30;;;;;;;;;;;19.80;55.10;;;;;;4953998;29;20435;-64
2022/03/26 11:26:35;;;;;;;;;;;19.90;53.10;;;;;;4954234;29;20294;-64
2022/03/26 11:29:41;;;;;;;;;;;19.90;53.40;;;;;;4936740;29;19968;-64
2022/03/26 11:32:15;;;;;;;;;;;20.30;52.60;;;;;;4954071;29;19910;-64
2022/03/26 11:34:41;;;;;;;;;;;19.60;51.60;;;;;;4953730;29;20367;-64
2022/03/26 11:37:20;;;;;;;;;;;19.20;51.90;;;;;;4953557;29;19917;-64
2022/03/26 11:39:47;;;;;;;;;;;19.20;53.50;;;;;;4952755;28;20290;-64
2022/03/26 11:42:13;;;;;;;;;;;19.90;52.80;;;;;;4952725;29;20281;-64
2022/03/26 11:44:45;;;;;;;;;;;20.20;51.80;;;;;;4953504;29;19981;-64
2022/03/26 11:53:10;;;;;;;;;;;21.00;51.30;;;;;;4952690;28;19914;-64
2022/03/26 11:55:46;;;;;;;;;;;21.00;49.70;;;;;;4953448;29;20294;-64
2022/03/26 11:58:13;;;;;;;;;;;21.60;50.20;;;;;;4953375;29;20347;-64
2022/03/26 12:01:03;;;;;;;;;;;21.00;49.90;;;;;;4952124;29;19920;-64
2022/03/26 12:03:40;;;;;;;;;;;21.20;49.40;;;;;;4953297;29;19910;-63
2022/03/26 12:08:57;;;;;;;;;;;21.70;50.40;;;;;;4952946;29;19961;-63
2022/03/26 12:11:27;;;;;;;;;;;21.40;49.40;;;;;;4952044;29;19917;-63
2022/03/26 12:14:02;;;;;;;;;;;21.30;48.80;;;;;;4952213;28;19910;-63
2022/03/26 12:16:49;;;;;;;;;;;21.30;49.20;;;;;;4953283;29;19926;-64
2022/03/26 12:19:41;;;;;;;;;;;20.60;49.80;;;;;;4952681;29;20009;-63
2022/03/26 12:22:27;;;;;;;;;;;20.70;49.40;;;;;;4953073;28;19961;-63
2022/03/26 12:24:54;;;;;;;;;;;21.80;49.40;;;;;;4935694;29;19910;-64
2022/03/26 12:27:20;;;;;;;;;;;23.00;47.50;;;;;;4953009;29;20344;-64
2022/03/26 12:29:46;;;;;;;;;;;23.90;46.00;;;;;;4952769;28;19969;-65
2022/03/26 12:32:13;;;;;;;;;;;23.90;44.90;;;;;;4952948;29;19914;-65
2022/03/26 12:34:55;;;;;;;;;;;22.90;46.20;;;;;;4951529;29;19917;-64
2022/03/26 12:37:23;;;;;;;;;;;22.80;45.80;;;;;;4953026;29;19911;-64
2022/03/26 12:39:50;;;;;;;;;;;23.60;45.80;;;;;;4935702;29;19922;-65
2022/03/26 12:42:15;;;;;;;;;;;24.00;44.40;;;;;;4952889;29;19914;-64
2022/03/26 12:44:41;;;;;;;;;;;24.00;43.50;;;;;;4953014;28;19957;-64
2022/03/26 12:47:07;;;;;;;;;;;23.70;43.40;;;;;;4952497;29;20374;-64
2022/03/26 12:49:37;;;;;;;;;;;22.30;44.00;;;;;;4953349;28;20338;-64
2022/03/26 12:52:03;;;;;;;;;;;22.80;45.50;;;;;;4958937;28;20384;-65
2022/03/26 12:54:29;;;;;;;;;;;24.00;44.30;;;;;;4957628;28;19915;-64
2022/03/26 12:56:55;;;;;;;;;;;25.30;43.90;;;;;;4957476;29;19921;-63
2022/03/26 12:59:21;;;;;;;;;;;23.90;45.80;;;;;;4957931;29;19957;-63
2022/03/26 13:01:55;;;;;;;;;;;23.00;43.50;;;;;;4958134;28;20046;-64
2022/03/26 13:04:21;;;;;;;;;;;22.30;44.90;;;;;;4957795;28;20354;-64
2022/03/26 13:06:52;;;;;;;;;;;23.10;47.50;;;;;;4958626;29;19915;-64
2022/03/26 13:09:17;;;;;;;;;;;22.50;43.80;;;;;;4957737;29;19918;-64
2022/03/26 13:11:43;;;;;;;;;;;23.00;43.50;;;;;;4959178;28;19933;-64
2022/03/26 13:14:09;;;;;;;;;;;23.60;42.60;;;;;;4958920;29;19914;-64
2022/03/26 13:16:35;;;;;;;;;;;23.60;42.60;;;;;;4959124;29;19918;-64
2022/03/26 13:19:09;;;;;;;;;;;23.00;43.10;;;;;;4957074;28;19917;-64
2022/03/26 13:21:40;;;;;;;;;;;22.60;42.60;;;;;;4957439;29;19910;-63